Friday, November 24, 2017, 1:19 PM GMT
Back to Local

CYYZ, Toronto Pearson Int'L. Ont.

Location: , , Canada Lat: 43.667
Local Time: 1:19 PM GMT (13:19 GMT) Lon: -79.633
Time Zone: GMT Elev: 567 ft

Show me the last for .
Show Decoded

2017-11-24 13:00 METAR CYYZ 241300Z 19004KT 15SM FEW100 FEW250 02/M03 A2985 RMK AC1CI2 AC TR
                 SLP114 =
2017-11-24 12:00 METAR CYYZ 241200Z 21007KT 15SM SCT250 02/M03 A2985 RMK CI3 SLP117 =
2017-11-24 11:00 METAR CYYZ 241100Z 20006KT 15SM FEW035 BKN240 02/M03 A2987 RMK SC2CI3 SLP121 =
2017-11-24 10:00 METAR CYYZ 241000Z 20006KT 15SM BKN035 02/M04 A2988 RMK SC7 SLP125 =
2017-11-24 09:00 METAR CYYZ 240900Z 22005KT 15SM BKN035 01/M04 A2990 RMK SC7 SLP132 =
2017-11-24 08:00 METAR CYYZ 240800Z 23006KT 15SM BKN035 01/M05 A2991 RMK SC6 SLP135 =
2017-11-24 07:00 METAR CYYZ 240700Z 25008KT 15SM OVC040 02/M04 A2991 RMK SC8 SLP136 =
2017-11-24 06:00 METAR CYYZ 240600Z 24009KT 15SM OVC044 03/M04 A2991 RMK SC8 SLP136 =
2017-11-24 05:00 METAR CYYZ 240500Z 26011KT 15SM OVC043 03/M04 A2993 RMK SC8 SLP142 =
2017-11-24 04:00 METAR CYYZ 240400Z 25009KT 15SM OVC045 02/M04 A2992 RMK SC8 SLP141 =
2017-11-24 03:00 METAR CYYZ 240300Z 26010KT 15SM OVC050 02/M04 A2993 RMK SC8 SLP142 =
2017-11-24 02:00 METAR CYYZ 240200Z 24011G19KT 15SM OVC055 02/M05 A2991 RMK SC8 SLP138 =
2017-11-24 01:00 METAR CYYZ 240100Z 26011KT 15SM OVC057 02/M06 A2993 RMK SC8 SLP143 =
2017-11-24 00:00 METAR CYYZ 240000Z 26013KT 15SM FEW042 OVC064 02/M07 A2993 RMK SC2SC6 SLP142 =
2017-11-23 23:00 METAR CYYZ 232300Z 24014KT 15SM BKN057 OVC080 02/M08 A2992 RMK SC6AC2 SLP139 =
2017-11-23 22:00 METAR CYYZ 232200Z 25011KT 15SM BKN040 BKN080 OVC250 03/M08 A2991 RMK SC6AC1CI1
                 CI TRACE SLP137 =
2017-11-23 21:00 METAR CYYZ 232100Z 24010G15KT 15SM BKN038 OVC080 03/M08 A2991 RMK SC6AC2 SLP137
                 =
2017-11-23 20:00 METAR CYYZ 232000Z 23012KT 15SM BKN042 BKN060 OVC082 03/M08 A2992 RMK SC5SC2AC1
                 SLP140 =
2017-11-23 19:00 METAR CYYZ 231900Z 23012G18KT 15SM BKN042 OVC085 03/M07 A2993 RMK SC6AC2 SLP144
                 =
2017-11-23 18:00 METAR CYYZ 231800Z 22012G18KT 15SM BKN052 OVC085 03/M06 A2996 RMK SC5AC3 SLP155
                 =
2017-11-23 17:00 METAR CYYZ 231700Z 25012KT 15SM OVC056 02/M06 A2999 RMK SC8 SLP166 =
2017-11-23 16:00 METAR CYYZ 231600Z 24011KT 15SM OVC060 02/M06 A3002 RMK SC8 SLP176 =
2017-11-23 15:00 METAR CYYZ 231500Z 21008KT 180V240 15SM OVC070 01/M07 A3004 RMK AC8 SLP183 =
2017-11-23 14:00 METAR CYYZ 231400Z 22008KT 15SM OVC080 00/M07 A3008 RMK AC8 SLP194 =

Support USWX by starting your Amazon purchase here.